Time,TemperatureF,DewpointF,PressureIn,WindDirection,WindDirectionDegrees,WindSpeedMPH,WindSpeedGustMPH,Humidity,HourlyPrecipIn,Conditions,Clouds,dailyrainin,SoftwareType,DateUTC
2013-05-09 00:01:00,57.0,47.0,-100.00,North,0,1.0,2.0,69,-99.99,,,-99.99,,2013-05-09 07:01:00,
2013-05-09 00:12:00,58.0,48.0,-100.00,NNE,13,0.0,1.0,70,-99.99,,,-99.99,,2013-05-09 07:12:00,
2013-05-09 00:21:00,57.0,47.0,-100.00,NW,323,0.0,1.0,70,-99.99,,,-99.99,,2013-05-09 07:21:00,
2013-05-09 00:31:00,57.0,48.0,-100.00,NNW,339,0.0,1.0,71,-99.99,,,-99.99,,2013-05-09 07:31:00,
2013-05-09 00:42:00,57.0,48.0,-100.00,NW,310,0.0,1.0,71,-99.99,,,-99.99,,2013-05-09 07:42:00,
2013-05-09 00:52:00,57.0,48.0,-100.00,NE,53,1.0,1.0,73,-99.99,,,-99.99,,2013-05-09 07:52:00,
2013-05-09 01:02:00,57.0,48.0,-100.00,NNW,348,1.0,1.0,73,-99.99,,,-99.99,,2013-05-09 08:02:00,
2013-05-09 01:11:00,56.0,48.0,-100.00,NNE,22,1.0,1.0,75,-99.99,,,-99.99,,2013-05-09 08:11:00,
2013-05-09 01:21:00,57.0,49.0,-100.00,NNE,12,1.0,1.0,75,-99.99,,,-99.99,,2013-05-09 08:21:00,
2013-05-09 01:31:00,56.0,49.0,-100.00,NE,47,1.0,1.0,76,-99.99,,,-99.99,,2013-05-09 08:31:00,
2013-05-09 01:41:00,56.0,49.0,-100.00,NE,36,1.0,1.0,77,-99.99,,,-99.99,,2013-05-09 08:41:00,
2013-05-09 01:51:00,55.0,48.0,-100.00,NNE,33,1.0,2.0,78,-99.99,,,-99.99,,2013-05-09 08:51:00,
2013-05-09 02:01:00,55.0,48.0,-100.00,NE,48,1.0,3.0,78,-99.99,,,-99.99,,2013-05-09 09:01:00,
2013-05-09 02:11:00,54.0,48.0,-100.00,NE,45,1.0,3.0,79,-99.99,,,-99.99,,2013-05-09 09:11:00,
2013-05-09 02:21:00,54.0,48.0,-100.00,NE,38,1.0,2.0,80,-99.99,,,-99.99,,2013-05-09 09:21:00,
2013-05-09 02:32:00,53.0,48.0,-100.00,NE,44,1.0,2.0,82,-99.99,,,-99.99,,2013-05-09 09:32:00,
2013-05-09 02:42:00,52.0,47.0,-100.00,NE,51,1.0,2.0,83,-99.99,,,-99.99,,2013-05-09 09:42:00,
2013-05-09 02:52:00,51.0,47.0,-100.00,NNE,18,1.0,2.0,85,-99.99,,,-99.99,,2013-05-09 09:52:00,
2013-05-09 03:02:00,51.0,47.0,-100.00,NE,38,1.0,2.0,85,-99.99,,,-99.99,,2013-05-09 10:02:00,
2013-05-09 03:12:00,51.0,47.0,-100.00,NE,39,1.0,2.0,87,-99.99,,,-99.99,,2013-05-09 10:12:00,
2013-05-09 03:22:00,51.0,47.0,-100.00,NNE,32,1.0,2.0,86,-99.99,,,-99.99,,2013-05-09 10:22:00,
2013-05-09 03:33:00,51.0,47.0,-100.00,NNE,26,1.0,2.0,87,-99.99,,,-99.99,,2013-05-09 10:33:00,
2013-05-09 03:42:00,50.0,46.0,-100.00,NNE,29,1.0,2.0,86,-99.99,,,-99.99,,2013-05-09 10:42:00,
2013-05-09 03:52:00,50.0,46.0,-100.00,NE,51,1.0,2.0,86,-99.99,,,-99.99,,2013-05-09 10:52:00,
2013-05-09 04:02:00,51.0,47.0,-100.00,NE,44,1.0,2.0,86,-99.99,,,-99.99,,2013-05-09 11:02:00,
2013-05-09 04:12:00,50.0,46.0,-100.00,NE,47,1.0,2.0,85,-99.99,,,-99.99,,2013-05-09 11:12:00,
2013-05-09 04:22:00,50.0,46.0,-100.00,NE,52,1.0,2.0,85,-99.99,,,-99.99,,2013-05-09 11:22:00,
2013-05-09 04:32:00,50.0,46.0,-100.00,NE,41,1.0,2.0,85,-99.99,,,-99.99,,2013-05-09 11:32:00,
2013-05-09 04:41:00,50.0,46.0,-100.00,North,2,1.0,2.0,85,-99.99,,,-99.99,,2013-05-09 11:41:00,
2013-05-09 04:51:00,50.0,45.0,-100.00,NNE,24,1.0,2.0,84,-99.99,,,-99.99,,2013-05-09 11:51:00,
2013-05-09 05:01:00,50.0,45.0,-100.00,NNE,24,1.0,2.0,84,-99.99,,,-99.99,,2013-05-09 12:01:00,
2013-05-09 05:11:00,50.0,46.0,-100.00,North,7,1.0,2.0,85,-99.99,,,-99.99,,2013-05-09 12:11:00,
2013-05-09 05:22:00,49.0,45.0,-100.00,NE,45,1.0,1.0,86,-99.99,,,-99.99,,2013-05-09 12:22:00,
2013-05-09 05:31:00,50.0,46.0,-100.00,NE,45,1.0,2.0,86,-99.99,,,-99.99,,2013-05-09 12:31:00,
2013-05-09 05:42:00,50.0,46.0,-100.00,NE,53,1.0,2.0,85,-99.99,,,-99.99,,2013-05-09 12:42:00,
2013-05-09 05:51:00,50.0,45.0,-100.00,NE,46,0.0,1.0,83,-99.99,,,-99.99,,2013-05-09 12:51:00,
2013-05-09 06:01:00,50.0,45.0,-100.00,NE,46,0.0,1.0,83,-99.99,,,-99.99,,2013-05-09 13:01:00,
2013-05-09 06:12:00,50.0,45.0,-100.00,NE,46,1.0,2.0,83,-99.99,,,-99.99,,2013-05-09 13:12:00,
2013-05-09 06:21:00,50.0,45.0,-100.00,NE,52,1.0,2.0,83,-99.99,,,-99.99,,2013-05-09 13:21:00,
2013-05-09 06:32:00,50.0,45.0,-100.00,NE,47,1.0,2.0,84,-99.99,,,-99.99,,2013-05-09 13:32:00,
2013-05-09 06:42:00,50.0,45.0,-100.00,NE,45,1.0,1.0,83,-99.99,,,-99.99,,2013-05-09 13:42:00,
2013-05-09 06:52:00,49.0,45.0,-100.00,NE,56,1.0,1.0,85,-99.99,,,-99.99,,2013-05-09 13:52:00,
2013-05-09 07:01:00,50.0,45.0,-100.00,NE,48,1.0,1.0,84,-99.99,,,-99.99,,2013-05-09 14:01:00,
2013-05-09 07:11:00,51.0,46.0,-100.00,NE,52,1.0,2.0,82,-99.99,,,-99.99,,2013-05-09 14:11:00,
2013-05-09 07:21:00,51.0,45.0,-100.00,ENE,73,0.0,1.0,81,-99.99,,,-99.99,,2013-05-09 14:21:00,
2013-05-09 07:32:00,52.0,46.0,-100.00,ENE,57,0.0,1.0,81,-99.99,,,-99.99,,2013-05-09 14:32:00,
2013-05-09 07:41:00,53.0,47.0,-100.00,ENE,78,0.0,1.0,79,-99.99,,,-99.99,,2013-05-09 14:41:00,
2013-05-09 07:52:00,54.0,48.0,-100.00,East,89,0.0,1.0,79,-99.99,,,-99.99,,2013-05-09 14:52:00,
2013-05-09 08:01:00,54.0,48.0,-100.00,East,89,0.0,1.0,79,-99.99,,,-99.99,,2013-05-09 15:01:00,
2013-05-09 08:11:00,56.0,47.0,-100.00,SE,143,0.0,1.0,72,-99.99,,,-99.99,,2013-05-09 15:11:00,
2013-05-09 08:21:00,57.0,48.0,-100.00,ESE,118,1.0,1.0,72,-99.99,,,-99.99,,2013-05-09 15:21:00,
2013-05-09 08:33:00,58.0,48.0,-100.00,ESE,109,1.0,2.0,69,-99.99,,,-99.99,,2013-05-09 15:33:00,
2013-05-09 08:43:00,59.0,49.0,-100.00,ESE,123,1.0,2.0,69,-99.99,,,-99.99,,2013-05-09 15:43:00,
2013-05-09 08:52:00,59.0,50.0,-100.00,East,82,0.0,1.0,73,-99.99,,,-99.99,,2013-05-09 15:52:00,
2013-05-09 09:03:00,61.0,53.0,-100.00,East,91,0.0,2.0,74,-99.99,,,-99.99,,2013-05-09 16:03:00,
2013-05-09 09:12:00,62.0,52.0,-100.00,ESE,109,1.0,3.0,70,-99.99,,,-99.99,,2013-05-09 16:12:00,
2013-05-09 09:22:00,62.0,50.0,-100.00,SE,135,1.0,3.0,65,-99.99,,,-99.99,,2013-05-09 16:22:00,
2013-05-09 09:32:00,62.0,50.0,-100.00,SSW,193,1.0,4.0,65,-99.99,,,-99.99,,2013-05-09 16:32:00,
2013-05-09 09:42:00,63.0,50.0,-100.00,SW,233,2.0,4.0,62,-99.99,,,-99.99,,2013-05-09 16:42:00,
2013-05-09 09:52:00,64.0,50.0,-100.00,ESE,106,2.0,6.0,60,-99.99,,,-99.99,,2013-05-09 16:52:00,
2013-05-09 10:02:00,64.0,50.0,-100.00,ESE,106,2.0,6.0,60,-99.99,,,-99.99,,2013-05-09 17:02:00,
2013-05-09 10:12:00,64.0,50.0,-100.00,SE,142,2.0,5.0,60,-99.99,,,-99.99,,2013-05-09 17:12:00,
2013-05-09 10:21:00,65.0,49.0,-100.00,SE,142,2.0,6.0,57,-99.99,,,-99.99,,2013-05-09 17:21:00,
2013-05-09 10:32:00,66.0,49.0,-100.00,SSE,167,2.0,5.0,54,-99.99,,,-99.99,,2013-05-09 17:32:00,
2013-05-09 10:41:00,66.0,48.0,-100.00,SE,124,3.0,7.0,53,-99.99,,,-99.99,,2013-05-09 17:41:00,
2013-05-09 10:55:00,66.0,49.0,-100.00,WSW,238,3.0,10.0,54,-99.99,,,-99.99,,2013-05-09 17:55:00,
2013-05-09 11:01:00,66.0,49.0,-100.00,WSW,238,3.0,10.0,54,-99.99,,,-99.99,,2013-05-09 18:01:00,
2013-05-09 11:12:00,68.0,49.0,-100.00,SW,232,4.0,10.0,51,-99.99,,,-99.99,,2013-05-09 18:12:00,
2013-05-09 11:21:00,68.0,49.0,-100.00,SW,236,4.0,9.0,51,-99.99,,,-99.99,,2013-05-09 18:21:00,
2013-05-09 11:31:00,68.0,49.0,-100.00,SW,219,3.0,9.0,51,-99.99,,,-99.99,,2013-05-09 18:31:00,
2013-05-09 11:42:00,68.0,50.0,-100.00,SW,220,3.0,11.0,52,-99.99,,,-99.99,,2013-05-09 18:42:00,
2013-05-09 11:52:00,68.0,50.0,-100.00,WSW,249,3.0,10.0,52,-99.99,,,-99.99,,2013-05-09 18:52:00,
2013-05-09 12:01:00,68.0,50.0,-100.00,WSW,249,3.0,10.0,52,-99.99,,,-99.99,,2013-05-09 19:01:00,
2013-05-09 12:11:00,69.0,51.0,-100.00,WSW,255,7.0,12.0,52,-99.99,,,-99.99,,2013-05-09 19:11:00,
2013-05-09 12:21:00,69.0,51.0,-100.00,SW,234,5.0,10.0,53,-99.99,,,-99.99,,2013-05-09 19:21:00,
2013-05-09 12:31:00,69.0,51.0,-100.00,South,182,2.0,7.0,52,-99.99,,,-99.99,,2013-05-09 19:31:00,
2013-05-09 12:41:00,69.0,51.0,-100.00,South,182,2.0,7.0,52,-99.99,,,-99.99,,2013-05-09 19:41:00,
2013-05-09 12:52:00,69.0,52.0,-100.00,SW,229,4.0,9.0,54,-99.99,,,-99.99,,2013-05-09 19:52:00,
2013-05-09 13:01:00,69.0,52.0,-100.00,SW,229,4.0,9.0,54,-99.99,,,-99.99,,2013-05-09 20:01:00,
2013-05-09 13:11:00,68.0,51.0,-100.00,SSW,205,3.0,11.0,55,-99.99,,,-99.99,,2013-05-09 20:11:00,
2013-05-09 13:21:00,70.0,52.0,-100.00,WSW,256,5.0,11.0,53,-99.99,,,-99.99,,2013-05-09 20:21:00,
2013-05-09 13:32:00,69.0,51.0,-100.00,SSW,211,4.0,9.0,53,-99.99,,,-99.99,,2013-05-09 20:32:00,
2013-05-09 13:42:00,70.0,52.0,-100.00,SW,227,4.0,10.0,52,-99.99,,,-99.99,,2013-05-09 20:42:00,
2013-05-09 13:52:00,70.0,52.0,-100.00,SSW,213,4.0,10.0,53,-99.99,,,-99.99,,2013-05-09 20:52:00,
2013-05-09 14:01:00,70.0,52.0,-100.00,SSW,213,4.0,11.0,53,-99.99,,,-99.99,,2013-05-09 21:01:00,
2013-05-09 14:11:00,69.0,51.0,-100.00,SSW,202,4.0,12.0,53,-99.99,,,-99.99,,2013-05-09 21:11:00,
2013-05-09 14:22:00,69.0,51.0,-100.00,SW,219,5.0,11.0,53,-99.99,,,-99.99,,2013-05-09 21:22:00,
2013-05-09 14:32:00,70.0,51.0,-100.00,SSW,197,4.0,11.0,51,-99.99,,,-99.99,,2013-05-09 21:32:00,
2013-05-09 14:42:00,70.0,51.0,-100.00,SSW,197,4.0,11.0,51,-99.99,,,-99.99,,2013-05-09 21:42:00,
2013-05-09 14:52:00,70.0,50.0,-100.00,SSW,204,4.0,10.0,50,-99.99,,,-99.99,,2013-05-09 21:52:00,
2013-05-09 15:02:00,70.0,50.0,-100.00,SSW,204,4.0,10.0,50,-99.99,,,-99.99,,2013-05-09 22:02:00,
2013-05-09 15:12:00,68.0,51.0,-100.00,WSW,239,4.0,11.0,55,-99.99,,,-99.99,,2013-05-09 22:12:00,
2013-05-09 15:22:00,69.0,52.0,-100.00,SSW,208,4.0,10.0,55,-99.99,,,-99.99,,2013-05-09 22:22:00,
2013-05-09 15:32:00,68.0,52.0,-100.00,WSW,244,7.0,13.0,56,-99.99,,,-99.99,,2013-05-09 22:32:00,
2013-05-09 15:42:00,68.0,52.0,-100.00,WSW,244,5.0,11.0,56,-99.99,,,-99.99,,2013-05-09 22:42:00,
2013-05-09 15:52:00,69.0,51.0,-100.00,SW,216,4.0,11.0,53,-99.99,,,-99.99,,2013-05-09 22:52:00,
2013-05-09 16:02:00,69.0,51.0,-100.00,SSW,201,3.0,9.0,53,-99.99,,,-99.99,,2013-05-09 23:02:00,
2013-05-09 16:11:00,70.0,52.0,-100.00,SSW,196,3.0,10.0,52,-99.99,,,-99.99,,2013-05-09 23:11:00,
2013-05-09 16:21:00,69.0,52.0,-100.00,SSW,209,5.0,9.0,54,-99.99,,,-99.99,,2013-05-09 23:21:00,
2013-05-09 16:32:00,68.0,51.0,-100.00,SW,236,5.0,10.0,55,-99.99,,,-99.99,,2013-05-09 23:32:00,
2013-05-09 16:42:00,67.0,51.0,-100.00,WSW,244,5.0,12.0,56,-99.99,,,-99.99,,2013-05-09 23:42:00,
2013-05-09 16:52:00,67.0,51.0,-100.00,SW,229,4.0,10.0,57,-99.99,,,-99.99,,2013-05-09 23:52:00,
2013-05-09 17:01:00,66.0,51.0,-100.00,SW,231,4.0,9.0,58,-99.99,,,-99.99,,2013-05-10 00:01:00,
2013-05-09 17:11:00,66.0,50.0,-100.00,WSW,237,4.0,8.0,57,-99.99,,,-99.99,,2013-05-10 00:11:00,
2013-05-09 17:21:00,66.0,51.0,-100.00,SW,221,3.0,7.0,59,-99.99,,,-99.99,,2013-05-10 00:21:00,
2013-05-09 17:32:00,66.0,51.0,-100.00,SW,222,3.0,6.0,59,-99.99,,,-99.99,,2013-05-10 00:32:00,
2013-05-09 17:42:00,66.0,51.0,-100.00,SW,222,3.0,6.0,59,-99.99,,,-99.99,,2013-05-10 00:42:00,
2013-05-09 17:51:00,67.0,52.0,-100.00,SSE,161,2.0,7.0,58,-99.99,,,-99.99,,2013-05-10 00:51:00,
2013-05-09 18:01:00,67.0,52.0,-100.00,SSE,161,2.0,7.0,58,-99.99,,,-99.99,,2013-05-10 01:01:00,
2013-05-09 18:11:00,66.0,52.0,-100.00,SSW,196,3.0,10.0,60,-99.99,,,-99.99,,2013-05-10 01:11:00,
2013-05-09 18:21:00,65.0,52.0,-100.00,SSW,207,2.0,7.0,62,-99.99,,,-99.99,,2013-05-10 01:21:00,
2013-05-09 18:31:00,65.0,52.0,-100.00,SSW,195,2.0,7.0,62,-99.99,,,-99.99,,2013-05-10 01:31:00,
2013-05-09 18:41:00,65.0,52.0,-100.00,South,176,2.0,6.0,62,-99.99,,,-99.99,,2013-05-10 01:41:00,
2013-05-09 18:52:00,65.0,52.0,-100.00,SSW,201,2.0,4.0,62,-99.99,,,-99.99,,2013-05-10 01:52:00,
2013-05-09 19:01:00,65.0,51.0,-100.00,SSW,205,1.0,4.0,61,-99.99,,,-99.99,,2013-05-10 02:01:00,
2013-05-09 19:11:00,65.0,51.0,-100.00,South,188,1.0,3.0,61,-99.99,,,-99.99,,2013-05-10 02:11:00,
2013-05-09 19:21:00,64.0,51.0,-100.00,SSW,201,2.0,5.0,63,-99.99,,,-99.99,,2013-05-10 02:21:00,
2013-05-09 19:31:00,63.0,51.0,-100.00,SSW,209,1.0,5.0,65,-99.99,,,-99.99,,2013-05-10 02:31:00,
2013-05-09 19:42:00,63.0,51.0,-100.00,SSW,195,1.0,3.0,66,-99.99,,,-99.99,,2013-05-10 02:42:00,
2013-05-09 19:52:00,63.0,51.0,-100.00,SW,233,2.0,5.0,66,-99.99,,,-99.99,,2013-05-10 02:52:00,
2013-05-09 20:01:00,63.0,52.0,-100.00,WSW,258,2.0,4.0,67,-99.99,,,-99.99,,2013-05-10 03:01:00,
2013-05-09 20:11:00,62.0,52.0,-100.00,WSW,252,2.0,5.0,69,-99.99,,,-99.99,,2013-05-10 03:11:00,
2013-05-09 20:21:00,61.0,51.0,-100.00,WSW,252,3.0,6.0,70,-99.99,,,-99.99,,2013-05-10 03:21:00,
2013-05-09 20:32:00,61.0,51.0,-100.00,SW,216,1.0,5.0,70,-99.99,,,-99.99,,2013-05-10 03:32:00,
2013-05-09 20:43:00,61.0,51.0,-100.00,ESE,122,1.0,2.0,70,-99.99,,,-99.99,,2013-05-10 03:43:00,
2013-05-09 20:52:00,61.0,52.0,-100.00,ESE,112,1.0,2.0,71,-99.99,,,-99.99,,2013-05-10 03:52:00,
2013-05-09 21:02:00,61.0,52.0,-100.00,ESE,112,1.0,2.0,71,-99.99,,,-99.99,,2013-05-10 04:02:00,
2013-05-09 21:12:00,60.0,51.0,-100.00,ESE,110,0.0,1.0,72,-99.99,,,-99.99,,2013-05-10 04:12:00,
2013-05-09 21:22:00,59.0,51.0,-100.00,SSE,154,0.0,1.0,74,-99.99,,,-99.99,,2013-05-10 04:22:00,
2013-05-09 21:33:00,59.0,51.0,-100.00,SW,226,0.0,1.0,74,-99.99,,,-99.99,,2013-05-10 04:33:00,
2013-05-09 21:42:00,59.0,51.0,-100.00,SSW,196,0.0,1.0,74,-99.99,,,-99.99,,2013-05-10 04:42:00,
2013-05-09 21:52:00,59.0,51.0,-100.00,SSE,161,0.0,2.0,75,-99.99,,,-99.99,,2013-05-10 04:52:00,
2013-05-09 22:02:00,59.0,51.0,-100.00,SE,145,1.0,2.0,76,-99.99,,,-99.99,,2013-05-10 05:02:00,
2013-05-09 22:12:00,58.0,51.0,-100.00,ESE,123,1.0,4.0,77,-99.99,,,-99.99,,2013-05-10 05:12:00,
2013-05-09 22:21:00,58.0,51.0,-100.00,SE,138,1.0,2.0,78,-99.99,,,-99.99,,2013-05-10 05:21:00,
2013-05-09 22:32:00,58.0,51.0,-100.00,West,272,1.0,3.0,78,-99.99,,,-99.99,,2013-05-10 05:32:00,
2013-05-09 22:42:00,58.0,52.0,-100.00,West,272,1.0,4.0,80,-99.99,,,-99.99,,2013-05-10 05:42:00,
2013-05-09 22:52:00,58.0,52.0,-100.00,West,274,1.0,4.0,80,-99.99,,,-99.99,,2013-05-10 05:52:00,
2013-05-09 23:01:00,57.0,51.0,-100.00,NE,41,1.0,2.0,81,-99.99,,,-99.99,,2013-05-10 06:01:00,
2013-05-09 23:12:00,57.0,52.0,-100.00,ENE,58,1.0,2.0,82,-99.99,,,-99.99,,2013-05-10 06:12:00,
2013-05-09 23:21:00,57.0,52.0,-100.00,ENE,60,1.0,2.0,82,-99.99,,,-99.99,,2013-05-10 06:21:00,
2013-05-09 23:32:00,57.0,52.0,-100.00,ENE,61,1.0,3.0,82,-99.99,,,-99.99,,2013-05-10 06:32:00,
2013-05-09 23:41:00,57.0,52.0,-100.00,ENE,70,2.0,4.0,82,-99.99,,,-99.99,,2013-05-10 06:41:00,
2013-05-09 23:51:00,57.0,51.0,-100.00,ENE,76,1.0,3.0,81,-99.99,,,-99.99,,2013-05-10 06:51:00,